Time;durP1;ratioP1;P1;durP2;ratioP2;P2;SDS_P1;SDS_P2;PMS_P1;PMS_P2;Temp;Humidity;BMP_temperature;BMP_pressure;BME280_temperature;BME280_humidity;BME280_pressure;Samples;Min_cycle;Max_cycle;Signal;HPM_P1;HPM_P2
2021/07/17 00:01:31;;;;;;;20.95;10.77;;;19.30;90.10;;;;;;4917970;29;20488;-73
2021/07/17 00:03:57;;;;;;;18.58;10.25;;;19.30;90.10;;;;;;4937182;29;20040;-73
2021/07/17 00:06:23;;;;;;;17.55;10.45;;;19.20;90.30;;;;;;4941352;29;20106;-73
2021/07/17 00:08:50;;;;;;;17.30;10.43;;;19.30;90.10;;;;;;4965526;28;20031;-73
2021/07/17 00:11:17;;;;;;;16.83;10.25;;;19.20;90.30;;;;;;4958247;28;20028;-72
2021/07/17 00:13:43;;;;;;;17.77;10.38;;;19.10;90.50;;;;;;4936874;29;20118;-73
2021/07/17 00:16:09;;;;;;;15.32;9.75;;;19.10;90.70;;;;;;4953894;29;20115;-73
2021/07/17 00:18:34;;;;;;;23.20;10.68;;;19.10;90.60;;;;;;4954101;29;20027;-73
2021/07/17 00:21:00;;;;;;;17.25;10.23;;;19.10;90.60;;;;;;4954601;29;20028;-73
2021/07/17 00:23:26;;;;;;;19.23;10.80;;;19.00;90.60;;;;;;4953974;29;20543;-73
2021/07/17 00:25:55;;;;;;;18.83;10.45;;;19.00;90.70;;;;;;4931669;29;20035;-73
2021/07/17 00:28:21;;;;;;;16.98;10.85;;;18.90;91.10;;;;;;4916991;29;20028;-74
2021/07/17 00:30:47;;;;;;;17.95;10.32;;;18.90;90.80;;;;;;4934612;29;20031;-74
2021/07/17 00:33:13;;;;;;;18.60;9.68;;;18.90;91.00;;;;;;4928385;29;20028;-74
2021/07/17 00:35:39;;;;;;;19.60;11.05;;;18.90;91.00;;;;;;4954130;28;20414;-74
2021/07/17 00:38:05;;;;;;;22.55;10.82;;;18.90;90.90;;;;;;4956857;29;20498;-79
2021/07/17 00:40:32;;;;;;;18.40;11.43;;;18.90;91.10;;;;;;4939421;29;20444;-75
2021/07/17 00:42:58;;;;;;;20.02;10.93;;;18.90;91.10;;;;;;4956773;29;20031;-74
2021/07/17 00:45:24;;;;;;;18.27;10.63;;;19.00;91.00;;;;;;4938969;29;20172;-74
2021/07/17 00:47:50;;;;;;;20.73;10.75;;;18.90;91.10;;;;;;4940338;29;20042;-73
2021/07/17 00:50:19;;;;;;;16.27;10.18;;;18.80;91.30;;;;;;4957012;29;20038;-74
2021/07/17 00:52:45;;;;;;;18.33;10.80;;;18.80;91.30;;;;;;4957509;29;20027;-74
2021/07/17 00:55:12;;;;;;;18.45;10.57;;;18.80;91.30;;;;;;4939298;29;20035;-74
2021/07/17 00:57:39;;;;;;;17.98;10.43;;;18.80;91.20;;;;;;4940007;29;20031;-73
2021/07/17 01:00:08;;;;;;;18.38;10.10;;;18.80;91.40;;;;;;4939422;29;20028;-78
2021/07/17 01:03:05;;;;;;;19.17;10.15;;;18.70;91.50;;;;;;4956137;29;20031;-73
2021/07/17 01:05:31;;;;;;;19.20;10.20;;;18.60;91.60;;;;;;4955757;29;20043;-73
2021/07/17 01:07:58;;;;;;;16.00;10.15;;;18.50;91.80;;;;;;4956339;29;20031;-74
2021/07/17 01:10:24;;;;;;;16.23;10.48;;;18.50;91.90;;;;;;4938843;29;20110;-73
2021/07/17 01:12:50;;;;;;;18.33;10.32;;;18.50;92.00;;;;;;4939407;29;20034;-74
2021/07/17 01:15:17;;;;;;;18.15;10.10;;;18.50;91.90;;;;;;4938317;29;20031;-73
2021/07/17 01:17:43;;;;;;;19.38;10.70;;;18.60;91.90;;;;;;4938832;29;20097;-74
2021/07/17 01:20:13;;;;;;;19.10;10.60;;;18.60;91.70;;;;;;4938842;29;20476;-77
2021/07/17 01:22:40;;;;;;;17.77;10.85;;;18.60;91.80;;;;;;4939067;29;20023;-73
2021/07/17 01:25:12;;;;;;;21.92;11.20;;;18.60;91.70;;;;;;4938909;29;20362;-74
2021/07/17 01:27:38;;;;;;;18.45;10.82;;;18.50;91.90;;;;;;4939023;29;20035;-74
2021/07/17 01:30:07;;;;;;;17.38;10.23;;;18.50;92.10;;;;;;4939191;29;20081;-74
2021/07/17 01:32:32;;;;;;;18.58;10.45;;;18.40;92.20;;;;;;4938889;29;20027;-73
2021/07/17 01:34:58;;;;;;;16.60;10.25;;;18.40;92.20;;;;;;4939194;29;20384;-74
2021/07/17 01:37:24;;;;;;;16.85;11.07;;;18.50;92.10;;;;;;4938483;29;20059;-74
2021/07/17 01:39:49;;;;;;;17.77;10.13;;;18.50;92.00;;;;;;4956285;29;20034;-74
2021/07/17 01:42:15;;;;;;;20.15;11.48;;;18.50;91.90;;;;;;4955857;29;20524;-74
2021/07/17 01:44:45;;;;;;;20.20;11.23;;;18.50;92.00;;;;;;4956124;29;20038;-73
2021/07/17 01:47:14;;;;;;;19.65;10.45;;;18.50;92.00;;;;;;4954988;28;20054;-74
2021/07/17 01:49:41;;;;;;;22.00;10.43;;;18.50;92.10;;;;;;4956470;29;20019;-73
2021/07/17 01:52:08;;;;;;;18.85;10.57;;;18.40;92.20;;;;;;4956446;29;20032;-75
2021/07/17 01:54:37;;;;;;;17.65;10.77;;;18.40;92.30;;;;;;4955617;29;20031;-74
2021/07/17 01:57:04;;;;;;;20.15;11.02;;;18.30;92.40;;;;;;4938565;29;20033;-73
2021/07/17 01:59:34;;;;;;;18.38;10.60;;;18.30;92.50;;;;;;4954965;29;20098;-74
2021/07/17 02:02:00;;;;;;;20.63;10.82;;;18.20;92.60;;;;;;4956074;29;20126;-74
2021/07/17 02:04:26;;;;;;;18.88;11.25;;;18.20;92.70;;;;;;4955390;29;20516;-73
2021/07/17 02:06:51;;;;;;;19.58;10.82;;;18.20;92.60;;;;;;4938718;29;20051;-73
2021/07/17 02:09:17;;;;;;;16.52;10.60;;;18.20;92.70;;;;;;4937979;29;20042;-74
2021/07/17 02:11:42;;;;;;;18.02;10.15;;;18.20;92.70;;;;;;4955235;29;20023;-73
2021/07/17 02:14:08;;;;;;;17.98;10.30;;;18.10;92.70;;;;;;4938351;29;20049;-79
2021/07/17 02:16:34;;;;;;;22.90;11.13;;;18.20;92.70;;;;;;4954558;29;20082;-73
2021/07/17 02:19:21;;;;;;;18.58;11.75;;;18.20;92.70;;;;;;4955964;29;20432;-73
2021/07/17 02:21:51;;;;;;;19.00;11.30;;;18.20;92.70;;;;;;4955865;29;20031;-74
2021/07/17 02:24:18;;;;;;;17.38;10.57;;;18.10;92.50;;;;;;4955299;29;20035;-74
2021/07/17 02:26:44;;;;;;;18.45;11.27;;;18.10;92.60;;;;;;4938503;29;20027;-73
2021/07/17 02:29:10;;;;;;;18.67;10.85;;;18.10;92.70;;;;;;4955844;29;20575;-77
2021/07/17 02:31:36;;;;;;;17.98;10.75;;;18.20;92.70;;;;;;4927250;29;20110;-73
2021/07/17 02:34:03;;;;;;;17.27;10.30;;;18.20;92.80;;;;;;4918599;29;20484;-73
2021/07/17 02:36:30;;;;;;;19.63;10.70;;;18.20;92.70;;;;;;4918678;29;20043;-73
2021/07/17 02:38:55;;;;;;;18.98;11.10;;;18.20;92.90;;;;;;4919242;29;20086;-73
2021/07/17 02:41:22;;;;;;;18.98;10.80;;;18.20;92.90;;;;;;4918683;29;20027;-73
2021/07/17 02:43:48;;;;;;;17.67;10.52;;;18.20;93.00;;;;;;4936311;29;20038;-73
2021/07/17 02:46:14;;;;;;;18.38;11.25;;;18.30;93.00;;;;;;4935761;29;20067;-74
2021/07/17 02:48:40;;;;;;;20.17;11.00;;;18.20;93.00;;;;;;4918760;29;20073;-73
2021/07/17 02:51:05;;;;;;;18.42;11.07;;;18.30;93.10;;;;;;4936012;29;20094;-73
2021/07/17 02:53:31;;;;;;;19.30;10.80;;;18.30;93.10;;;;;;4935169;29;20032;-74
2021/07/17 02:55:56;;;;;;;17.48;10.32;;;18.30;93.10;;;;;;4918871;29;20049;-73
2021/07/17 02:58:22;;;;;;;15.82;10.25;;;18.30;93.20;;;;;;4917995;29;20028;-73
2021/07/17 03:00:53;;;;;;;18.58;10.63;;;18.30;93.10;;;;;;4917808;29;20039;-73
2021/07/17 03:03:19;;;;;;;19.20;10.55;;;18.30;93.30;;;;;;4917820;29;20028;-74
2021/07/17 03:05:45;;;;;;;17.90;10.93;;;18.30;92.90;;;;;;4918069;29;20179;-73
2021/07/17 03:08:13;;;;;;;18.80;10.57;;;18.40;92.80;;;;;;4918312;29;20604;-76
2021/07/17 03:10:38;;;;;;;15.40;10.18;;;18.30;92.80;;;;;;4918671;29;20126;-74
2021/07/17 03:13:04;;;;;;;16.58;9.57;;;18.40;92.80;;;;;;4935743;29;20107;-73
2021/07/17 03:15:30;;;;;;;15.18;10.10;;;18.30;92.80;;;;;;4917700;29;20035;-73
2021/07/17 03:17:55;;;;;;;15.65;10.30;;;18.30;92.90;;;;;;4935978;29;20039;-74
2021/07/17 03:20:21;;;;;;;15.05;10.23;;;18.30;93.00;;;;;;4934847;29;20036;-74
2021/07/17 03:22:47;;;;;;;18.77;10.68;;;18.30;93.10;;;;;;4935515;29;20098;-74
2021/07/17 03:25:13;;;;;;;18.95;10.90;;;18.20;93.10;;;;;;4917841;29;20074;-75
2021/07/17 03:27:38;;;;;;;19.58;10.77;;;18.20;93.10;;;;;;4918768;29;20487;-74
2021/07/17 03:30:06;;;;;;;18.38;10.95;;;18.20;93.20;;;;;;4918592;29;20032;-74
2021/07/17 03:32:32;;;;;;;21.05;10.32;;;18.20;93.30;;;;;;4924201;29;20094;-74
2021/07/17 03:34:58;;;;;;;19.30;11.00;;;18.20;93.20;;;;;;4937516;29;20035;-74
2021/07/17 03:37:23;;;;;;;20.25;11.02;;;18.30;93.20;;;;;;4954497;29;20035;-74
2021/07/17 03:39:49;;;;;;;17.25;10.93;;;18.30;93.10;;;;;;4937444;29;20038;-74
2021/07/17 03:42:15;;;;;;;18.38;10.68;;;18.40;93.10;;;;;;4936844;29;20042;-76
2021/07/17 03:44:41;;;;;;;17.30;10.45;;;18.40;93.20;;;;;;4936388;29;20065;-74
2021/07/17 03:47:06;;;;;;;16.85;10.98;;;18.40;93.10;;;;;;4954588;29;20452;-74
2021/07/17 03:49:32;;;;;;;16.65;9.95;;;18.40;93.00;;;;;;4936401;29;20558;-74
2021/07/17 03:51:58;;;;;;;19.48;10.57;;;18.40;93.20;;;;;;4936924;29;20484;-74
2021/07/17 03:54:25;;;;;;;15.85;9.73;;;18.50;93.20;;;;;;4953538;29;20063;-74
2021/07/17 03:56:51;;;;;;;21.80;11.13;;;18.50;93.10;;;;;;4937333;29;20032;-74
2021/07/17 03:59:17;;;;;;;21.67;11.75;;;18.50;93.00;;;;;;4936649;29;20050;-75
2021/07/17 04:01:42;;;;;;;18.70;10.70;;;18.50;93.00;;;;;;4937042;29;20464;-73
2021/07/17 04:04:11;;;;;;;20.85;11.48;;;18.60;93.20;;;;;;4936452;29;20036;-74
2021/07/17 04:06:37;;;;;;;20.80;11.23;;;18.60;93.10;;;;;;4946113;28;20047;-73
2021/07/17 04:09:03;;;;;;;18.75;11.68;;;18.60;93.00;;;;;;4973472;28;20035;-73
2021/07/17 04:11:29;;;;;;;17.85;11.27;;;18.60;93.00;;;;;;4958098;28;20031;-73
2021/07/17 04:13:55;;;;;;;19.27;11.35;;;18.70;92.70;;;;;;4977107;28;20035;-74
2021/07/17 04:16:21;;;;;;;21.08;10.82;;;18.70;92.80;;;;;;4959366;28;20464;-75
2021/07/17 04:18:46;;;;;;;19.65;10.95;;;18.70;93.00;;;;;;4976962;28;20046;-74
2021/07/17 04:21:12;;;;;;;18.80;11.20;;;18.70;92.70;;;;;;4976905;28;20062;-73
2021/07/17 04:23:39;;;;;;;18.35;10.98;;;18.70;92.80;;;;;;4976561;28;20043;-74
2021/07/17 04:26:05;;;;;;;20.88;10.90;;;18.70;92.80;;;;;;4959140;28;20037;-74
2021/07/17 04:28:30;;;;;;;23.48;12.27;;;18.70;92.70;;;;;;4976094;28;20027;-74
2021/07/17 04:30:56;;;;;;;20.90;12.07;;;18.70;92.60;;;;;;4976789;28;20411;-74
2021/07/17 04:33:22;;;;;;;21.17;12.07;;;18.80;92.90;;;;;;4962158;28;20054;-74
2021/07/17 04:35:48;;;;;;;22.73;11.38;;;18.90;92.50;;;;;;4956577;28;20487;-74
2021/07/17 04:38:16;;;;;;;18.88;11.60;;;18.80;92.40;;;;;;4940479;29;20098;-89
2021/07/17 04:40:41;;;;;;;18.15;11.48;;;18.80;92.90;;;;;;4941400;29;20027;-78
2021/07/17 04:43:07;;;;;;;21.38;11.98;;;18.80;92.70;;;;;;4958195;29;20419;-79
2021/07/17 04:45:33;;;;;;;24.70;11.32;;;18.90;92.70;;;;;;4957875;29;20031;-79
2021/07/17 04:48:03;;;;;;;17.48;12.10;;;18.90;92.60;;;;;;4941266;29;20495;-79
2021/07/17 04:50:30;;;;;;;24.13;12.88;;;18.90;92.30;;;;;;4958268;29;20019;-79
2021/07/17 04:52:56;;;;;;;22.75;12.10;;;18.90;92.10;;;;;;4941493;29;20035;-79
2021/07/17 04:55:21;;;;;;;19.20;11.48;;;18.90;92.10;;;;;;4957344;29;20051;-79
2021/07/17 04:57:47;;;;;;;20.40;11.65;;;19.00;92.10;;;;;;4940988;29;20039;-78
2021/07/17 05:00:13;;;;;;;18.70;11.07;;;19.00;91.90;;;;;;4941097;29;20032;-78
2021/07/17 05:03:05;;;;;;;20.65;11.63;;;19.10;91.90;;;;;;4940426;29;20063;-78
2021/07/17 05:05:31;;;;;;;;;;;19.10;91.80;;;;;;4953773;29;20051;-79
2021/07/17 05:07:56;;;;;;;19.38;11.25;;;19.20;91.90;;;;;;4940914;29;20355;-78
2021/07/17 05:10:24;;;;;;;24.13;13.05;;;19.20;92.20;;;;;;4940423;29;20063;-78
2021/07/17 05:12:51;;;;;;;22.02;12.07;;;19.20;91.80;;;;;;4940729;29;20057;-79
2021/07/17 05:15:17;;;;;;;23.63;14.02;;;19.20;91.60;;;;;;4957223;29;20031;-86
2021/07/17 05:17:43;;;;;;;28.15;12.52;;;19.20;91.60;;;;;;4957263;29;20023;-79
2021/07/17 05:20:10;;;;;;;22.60;12.70;;;19.20;91.60;;;;;;4940352;29;20547;-80
2021/07/17 05:22:36;;;;;;;22.98;12.05;;;19.30;91.60;;;;;;4937661;29;20118;-79
2021/07/17 05:25:04;;;;;;;20.42;11.93;;;19.30;91.50;;;;;;4940743;29;20138;-79
2021/07/17 05:27:29;;;;;;;21.42;12.20;;;19.30;91.80;;;;;;4940229;29;20035;-79
2021/07/17 05:29:55;;;;;;;22.83;12.15;;;19.30;91.40;;;;;;4940565;29;20078;-79
2021/07/17 05:32:21;;;;;;;18.35;10.93;;;19.40;91.40;;;;;;4952460;29;20095;-79
2021/07/17 05:34:46;;;;;;;19.00;11.05;;;19.40;91.40;;;;;;4938262;29;20036;-79
2021/07/17 05:37:12;;;;;;;18.05;11.38;;;19.40;91.50;;;;;;4938217;29;20027;-79
2021/07/17 05:39:38;;;;;;;21.75;11.40;;;19.40;91.50;;;;;;4937926;29;20793;-79
2021/07/17 05:42:05;;;;;;;20.58;11.77;;;19.50;91.50;;;;;;4938393;29;20028;-79
2021/07/17 05:44:31;;;;;;;19.27;11.65;;;19.50;91.40;;;;;;4921068;29;20123;-79
2021/07/17 05:46:57;;;;;;;28.20;12.75;;;19.50;91.40;;;;;;4921358;29;20114;-79
2021/07/17 05:49:22;;;;;;;18.45;11.60;;;19.50;91.40;;;;;;4937597;29;20023;-79
2021/07/17 05:51:48;;;;;;;22.13;12.60;;;19.60;91.40;;;;;;4937895;29;20036;-79
2021/07/17 05:54:15;;;;;;;24.15;13.35;;;19.60;91.10;;;;;;4920710;29;20042;-81
2021/07/17 05:56:41;;;;;;;21.52;12.43;;;19.70;90.90;;;;;;4919644;29;20051;-79
2021/07/17 05:59:06;;;;;;;23.45;12.55;;;19.80;90.80;;;;;;4920821;29;20509;-80
2021/07/17 06:01:32;;;;;;;25.30;12.55;;;19.90;90.70;;;;;;4937510;29;20031;-79
2021/07/17 06:03:58;;;;;;;17.33;11.38;;;19.90;90.60;;;;;;4938563;29;20484;-79
2021/07/17 06:06:23;;;;;;;21.63;12.18;;;19.90;90.70;;;;;;4939220;29;20412;-79
2021/07/17 06:08:50;;;;;;;20.42;12.00;;;19.90;90.60;;;;;;4939404;29;20035;-79
2021/07/17 06:11:15;;;;;;;19.92;11.50;;;19.90;90.90;;;;;;4957016;29;20034;-80
2021/07/17 06:13:41;;;;;;;24.92;11.45;;;19.90;90.60;;;;;;4956438;29;20035;-79
2021/07/17 06:16:08;;;;;;;19.48;11.18;;;20.00;90.60;;;;;;4939319;29;20432;-79
2021/07/17 06:18:33;;;;;;;17.33;10.80;;;20.00;90.50;;;;;;4956022;29;20027;-79
2021/07/17 06:20:59;;;;;;;19.40;10.93;;;20.00;90.50;;;;;;4939727;29;20088;-79
2021/07/17 06:23:25;;;;;;;19.40;11.60;;;20.10;90.50;;;;;;4939128;29;20135;-80
2021/07/17 06:25:51;;;;;;;20.27;11.30;;;20.20;90.50;;;;;;4956756;29;20027;-79
2021/07/17 06:28:17;;;;;;;18.85;10.88;;;20.20;90.40;;;;;;4938276;29;20522;-74
2021/07/17 06:30:42;;;;;;;19.65;11.27;;;20.20;90.40;;;;;;4938128;29;20029;-73
2021/07/17 06:33:08;;;;;;;20.30;11.70;;;20.20;90.40;;;;;;4954582;28;20035;-74
2021/07/17 06:35:34;;;;;;;20.92;10.90;;;20.20;90.20;;;;;;4927855;29;20131;-74
2021/07/17 06:37:59;;;;;;;18.88;11.20;;;20.20;90.30;;;;;;4936213;29;20366;-74
2021/07/17 06:40:25;;;;;;;22.08;11.50;;;20.20;90.40;;;;;;4946179;29;20098;-75
2021/07/17 06:42:51;;;;;;;18.40;10.25;;;20.20;90.30;;;;;;4924565;29;20148;-74
2021/07/17 06:45:18;;;;;;;21.55;10.38;;;20.20;90.40;;;;;;4936426;29;20435;-74
2021/07/17 06:47:45;;;;;;;25.42;11.13;;;20.20;90.40;;;;;;4954370;29;20038;-75
2021/07/17 06:50:12;;;;;;;17.08;9.95;;;20.20;90.30;;;;;;4929071;29;20036;-75
2021/07/17 06:52:37;;;;;;;18.65;10.40;;;20.30;90.30;;;;;;4930134;29;20039;-77
2021/07/17 06:55:05;;;;;;;18.42;10.68;;;20.30;90.30;;;;;;4921156;29;20424;-77
2021/07/17 06:57:31;;;;;;;14.30;9.50;;;20.30;90.20;;;;;;4918588;29;20463;-75
2021/07/17 06:59:57;;;;;;;20.20;10.30;;;20.40;90.20;;;;;;4918614;29;20469;-78
2021/07/17 07:02:23;;;;;;;13.82;9.80;;;20.40;90.10;;;;;;4935702;29;20023;-81
2021/07/17 07:04:49;;;;;;;20.25;10.32;;;20.40;90.10;;;;;;4919261;29;20048;-75
2021/07/17 07:07:15;;;;;;;17.23;9.93;;;20.50;90.00;;;;;;4923392;29;20150;-79
2021/07/17 07:09:40;;;;;;;17.65;9.50;;;20.50;90.00;;;;;;4935816;29;20050;-75
2021/07/17 07:12:06;;;;;;;16.85;9.55;;;20.50;90.00;;;;;;4935683;29;20067;-77
2021/07/17 07:14:32;;;;;;;15.60;9.65;;;20.50;89.80;;;;;;4918464;29;20470;-76
2021/07/17 07:16:58;;;;;;;18.80;9.85;;;20.60;89.70;;;;;;4917929;29;20028;-77
2021/07/17 07:19:23;;;;;;;16.02;9.60;;;20.60;89.50;;;;;;4935109;29;20043;-81
2021/07/17 07:21:49;;;;;;;20.73;9.95;;;20.60;89.60;;;;;;4912906;29;20062;-76
2021/07/17 07:24:15;;;;;;;19.02;10.63;;;20.60;89.40;;;;;;4925955;29;20416;-79
2021/07/17 07:26:42;;;;;;;17.67;10.75;;;20.70;89.20;;;;;;4918284;29;20111;-80
2021/07/17 07:29:07;;;;;;;20.13;10.85;;;20.80;89.00;;;;;;4935617;29;20019;-82
2021/07/17 07:31:33;;;;;;;14.35;10.07;;;20.80;88.70;;;;;;4919637;29;20051;-79
2021/07/17 07:33:59;;;;;;;22.17;10.30;;;20.80;88.80;;;;;;4901208;29;20032;-75
2021/07/17 07:36:25;;;;;;;16.90;9.57;;;20.80;88.60;;;;;;4916951;29;20179;-77
2021/07/17 07:38:50;;;;;;;21.67;9.80;;;20.80;89.00;;;;;;4917791;29;20035;-77
2021/07/17 07:41:16;;;;;;;15.23;9.18;;;20.80;89.10;;;;;;4901380;29;20028;-76
2021/07/17 07:43:45;;;;;;;16.73;9.23;;;20.80;89.00;;;;;;4915599;29;20032;-76
2021/07/17 07:46:11;;;;;;;16.83;8.95;;;20.90;89.00;;;;;;4898717;29;20032;-77
2021/07/17 07:48:37;;;;;;;16.73;9.68;;;20.90;88.50;;;;;;4909746;29;20441;-74
2021/07/17 07:51:03;;;;;;;17.20;9.98;;;21.00;88.50;;;;;;4901914;29;20020;-75
2021/07/17 07:53:28;;;;;;;16.98;9.40;;;21.00;88.50;;;;;;4930512;29;20036;-76
2021/07/17 07:55:54;;;;;;;17.38;10.30;;;21.00;88.30;;;;;;4921716;29;20028;-77
2021/07/17 07:58:20;;;;;;;16.13;9.93;;;21.10;88.30;;;;;;4924788;29;20461;-78
2021/07/17 08:00:45;;;;;;;18.73;9.48;;;21.10;88.00;;;;;;4927951;29;20023;-77
2021/07/17 08:03:11;;;;;;;15.55;9.32;;;21.20;87.80;;;;;;4911819;29;20436;-76
2021/07/17 08:05:37;;;;;;;16.25;9.43;;;21.20;87.30;;;;;;4913301;29;20073;-75
2021/07/17 08:08:03;;;;;;;14.23;9.27;;;21.30;87.20;;;;;;4945296;28;20036;-77
2021/07/17 08:10:28;;;;;;;15.82;9.15;;;21.40;86.70;;;;;;4927601;29;20551;-77
2021/07/17 08:12:54;;;;;;;19.95;8.73;;;21.40;86.40;;;;;;4935948;29;20126;-77
2021/07/17 08:15:20;;;;;;;16.75;9.35;;;21.50;86.60;;;;;;4950990;29;20565;-75
2021/07/17 08:17:46;;;;;;;14.07;9.00;;;21.60;86.70;;;;;;4939016;29;20461;-74
2021/07/17 08:20:12;;;;;;;16.00;9.05;;;21.60;86.50;;;;;;4944512;29;20035;-74
2021/07/17 08:22:40;;;;;;;16.20;9.05;;;21.60;85.80;;;;;;4928647;29;20086;-75
2021/07/17 08:25:07;;;;;;;11.77;8.52;;;21.60;85.90;;;;;;4937695;29;20031;-78
2021/07/17 08:27:33;;;;;;;13.52;8.55;;;21.60;86.10;;;;;;4937262;29;20082;-77
2021/07/17 08:29:59;;;;;;;17.08;9.25;;;21.60;86.30;;;;;;4929466;29;20082;-75
2021/07/17 08:32:25;;;;;;;14.25;8.00;;;21.60;86.10;;;;;;4923937;29;20020;-77
2021/07/17 08:34:52;;;;;;;12.90;8.43;;;21.70;85.70;;;;;;4936935;29;20090;-78
2021/07/17 08:37:19;;;;;;;15.10;8.50;;;21.70;84.90;;;;;;4936384;29;20698;-74
2021/07/17 08:39:45;;;;;;;11.50;8.32;;;21.60;85.10;;;;;;4948431;29;20257;-75
2021/07/17 08:42:13;;;;;;;11.02;8.25;;;21.60;84.80;;;;;;4919862;29;20461;-74
2021/07/17 08:44:41;;;;;;;15.38;8.77;;;21.70;85.10;;;;;;4917633;29;20036;-81
2021/07/17 08:47:08;;;;;;;14.48;9.07;;;21.60;84.70;;;;;;4933368;29;20027;-78
2021/07/17 08:49:34;;;;;;;14.88;9.20;;;21.60;84.80;;;;;;4954656;29;20031;-76
2021/07/17 08:52:02;;;;;;;15.23;8.50;;;21.60;85.00;;;;;;4947632;29;20401;-76
2021/07/17 08:54:29;;;;;;;16.38;8.45;;;21.60;85.10;;;;;;4917564;29;20074;-78
2021/07/17 08:56:55;;;;;;;14.50;9.43;;;21.60;85.60;;;;;;4949570;28;20031;-77
2021/07/17 08:59:21;;;;;;;20.08;9.60;;;21.60;85.50;;;;;;4937959;29;20400;-84
2021/07/17 09:01:49;;;;;;;12.68;8.13;;;21.70;85.30;;;;;;4943483;29;20027;-76
2021/07/17 09:04:15;;;;;;;15.57;8.35;;;21.80;84.90;;;;;;4939805;29;20042;-75
2021/07/17 09:06:40;;;;;;;13.10;8.25;;;21.80;85.20;;;;;;4944396;29;20048;-76
2021/07/17 09:09:07;;;;;;;10.68;8.32;;;21.80;84.80;;;;;;4920220;29;20035;-76
2021/07/17 09:11:40;;;;;;;16.02;9.38;;;21.80;84.70;;;;;;4956267;29;20038;-75
2021/07/17 09:14:07;;;;;;;13.10;8.38;;;21.70;85.00;;;;;;4948995;29;20043;-76
2021/07/17 09:16:36;;;;;;;13.25;8.18;;;21.80;84.90;;;;;;4919313;29;20051;-74
2021/07/17 09:19:04;;;;;;;15.25;8.20;;;21.80;84.70;;;;;;4920801;29;20058;-75
2021/07/17 09:21:32;;;;;;;12.63;8.05;;;21.70;84.70;;;;;;4939080;29;20023;-75
2021/07/17 09:24:03;;;;;;;14.32;8.52;;;21.80;85.10;;;;;;4939591;29;20046;-77
2021/07/17 09:26:31;;;;;;;12.20;7.95;;;21.80;84.70;;;;;;4939606;29;20126;-77
2021/07/17 09:29:10;;;;;;;11.95;8.75;;;21.80;84.10;;;;;;4957128;29;20049;-76
2021/07/17 09:31:56;;;;;;;15.35;8.32;;;21.80;84.10;;;;;;4939603;29;20031;-76
2021/07/17 09:34:25;;;;;;;16.58;8.32;;;21.90;83.90;;;;;;4920244;29;20691;-81
2021/07/17 09:36:59;;;;;;;13.13;8.25;;;21.90;83.80;;;;;;4950818;29;20035;-76
2021/07/17 09:39:49;;;;;;;11.88;8.43;;;22.00;83.90;;;;;;4937018;29;20042;-79
2021/07/17 09:42:20;;;;;;;12.05;8.13;;;22.00;83.70;;;;;;4929474;29;20063;-75
2021/07/17 09:44:50;;;;;;;10.93;7.72;;;21.90;83.40;;;;;;4938933;29;20035;-74
2021/07/17 09:47:19;;;;;;;14.60;8.00;;;21.90;83.20;;;;;;4938012;29;20032;-75
2021/07/17 09:49:45;;;;;;;12.02;7.32;;;21.80;83.50;;;;;;4941796;29;20086;-74
2021/07/17 09:52:13;;;;;;;16.58;7.72;;;21.80;83.80;;;;;;4956333;29;20389;-75
2021/07/17 09:54:40;;;;;;;12.68;7.57;;;21.80;83.50;;;;;;4955536;29;20043;-74
2021/07/17 09:57:06;;;;;;;11.38;7.13;;;21.80;83.80;;;;;;4922859;29;20034;-75
2021/07/17 09:59:31;;;;;;;12.07;7.40;;;21.90;83.90;;;;;;4945067;28;20065;-76
2021/07/17 10:01:57;;;;;;;13.02;7.15;;;21.80;84.10;;;;;;4956545;29;20027;-74
2021/07/17 10:04:23;;;;;;;10.70;6.93;;;21.80;84.10;;;;;;4956506;29;20496;-84
2021/07/17 10:07:00;;;;;;;15.18;7.68;;;21.80;83.90;;;;;;4939781;29;20047;-76
2021/07/17 10:09:33;;;;;;;11.95;7.13;;;21.70;84.10;;;;;;4961470;28;20082;-77
2021/07/17 10:12:01;;;;;;;13.93;8.07;;;21.70;84.50;;;;;;4958382;28;20031;-76
2021/07/17 10:14:38;;;;;;;14.20;7.72;;;21.70;84.20;;;;;;4974979;28;20033;-78
2021/07/17 10:17:09;;;;;;;13.23;7.15;;;21.80;84.00;;;;;;4957746;28;20027;-75
2021/07/17 10:19:37;;;;;;;11.65;6.53;;;21.80;84.20;;;;;;4933832;29;20038;-75
2021/07/17 10:22:03;;;;;;;12.35;6.75;;;21.80;83.90;;;;;;4938739;29;20027;-77
2021/07/17 10:24:29;;;;;;;10.15;7.15;;;21.80;84.10;;;;;;4927298;29;20067;-78
2021/07/17 10:26:57;;;;;;;12.88;7.45;;;21.90;83.80;;;;;;4919490;29;20031;-74
2021/07/17 10:29:24;;;;;;;11.85;7.13;;;22.00;83.80;;;;;;4921967;29;20031;-79
2021/07/17 10:31:51;;;;;;;11.63;6.75;;;22.10;82.90;;;;;;4938601;29;20054;-77
2021/07/17 10:34:18;;;;;;;14.05;6.50;;;22.10;82.90;;;;;;4955772;29;20469;-77
2021/07/17 10:37:03;;;;;;;25.45;15.07;;;22.30;82.50;;;;;;4942281;29;20038;-78
2021/07/17 10:39:35;;;;;;;14.52;8.15;;;22.40;82.10;;;;;;4954764;29;20114;-77
2021/07/17 10:42:16;;;;;;;13.95;7.43;;;22.50;81.40;;;;;;4938441;29;20027;-77
2021/07/17 10:44:47;;;;;;;11.40;7.63;;;22.50;81.50;;;;;;4942345;29;20043;-75
2021/07/17 10:47:14;;;;;;;13.95;6.78;;;22.60;81.20;;;;;;4919630;29;20055;-76
2021/07/17 10:49:46;;;;;;;12.98;6.63;;;22.60;80.00;;;;;;4918828;29;20090;-75
2021/07/17 10:52:12;;;;;;;11.80;6.60;;;22.70;80.40;;;;;;4936062;29;20110;-76
2021/07/17 10:54:38;;;;;;;13.98;7.00;;;22.70;80.60;;;;;;4935750;29;20044;-76
2021/07/17 10:57:05;;;;;;;13.57;7.15;;;22.70;80.80;;;;;;4935531;29;20136;-74
2021/07/17 10:59:31;;;;;;;12.15;6.72;;;22.70;80.20;;;;;;4935761;29;20581;-76
2021/07/17 11:01:57;;;;;;;10.98;6.38;;;22.80;80.00;;;;;;4937906;29;20027;-76
2021/07/17 11:04:40;;;;;;;11.95;6.97;;;22.90;80.10;;;;;;4938288;29;20066;-77
2021/07/17 11:07:18;;;;;;;10.35;6.78;;;23.00;79.30;;;;;;4938012;29;20074;-76
2021/07/17 11:09:56;;;;;;;11.20;6.60;;;23.10;78.90;;;;;;4944311;28;20522;-77
2021/07/17 11:12:33;;;;;;;11.75;6.70;;;23.00;78.40;;;;;;4974439;28;20045;-75
2021/07/17 11:15:05;;;;;;;10.95;6.10;;;23.10;78.70;;;;;;4959477;28;20453;-76
2021/07/17 11:17:44;;;;;;;9.45;6.60;;;23.10;79.00;;;;;;4953824;29;20038;-77
2021/07/17 11:20:19;;;;;;;12.20;6.55;;;23.20;78.60;;;;;;4954260;28;20066;-75
2021/07/17 11:22:46;;;;;;;15.07;7.82;;;23.20;77.70;;;;;;4924214;29;20019;-74
2021/07/17 11:25:16;;;;;;;10.02;6.65;;;23.20;77.60;;;;;;4952284;29;20059;-75
2021/07/17 11:27:42;;;;;;;8.88;6.60;;;23.30;77.60;;;;;;4948905;29;20030;-75
2021/07/17 11:30:19;;;;;;;11.95;6.95;;;23.40;76.60;;;;;;4943577;29;20144;-78
2021/07/17 11:33:06;;;;;;;12.25;6.85;;;23.50;76.50;;;;;;4954214;29;20074;-77
2021/07/17 11:35:37;;;;;;;10.90;6.30;;;23.50;75.50;;;;;;4918119;29;20035;-77
2021/07/17 11:38:05;;;;;;;9.57;5.88;;;23.50;76.50;;;;;;4918224;29;20032;-74
2021/07/17 11:40:31;;;;;;;11.13;6.47;;;23.50;76.70;;;;;;4917943;29;20043;-75
2021/07/17 11:43:01;;;;;;;9.43;6.28;;;23.50;76.60;;;;;;4933580;29;20476;-75
2021/07/17 11:45:27;;;;;;;10.82;5.90;;;23.50;76.20;;;;;;4952996;29;20047;-80
2021/07/17 11:47:52;;;;;;;10.95;6.10;;;23.60;76.70;;;;;;4954515;29;20085;-76
2021/07/17 11:50:22;;;;;;;11.10;6.15;;;23.60;76.10;;;;;;4937226;29;20039;-74
2021/07/17 11:52:48;;;;;;;11.85;6.38;;;23.80;75.80;;;;;;4936702;29;20113;-74
2021/07/17 11:55:16;;;;;;;8.55;6.05;;;24.00;75.70;;;;;;4936371;29;20495;-76
2021/07/17 11:57:43;;;;;;;9.90;6.00;;;24.00;75.20;;;;;;4936475;29;20028;-74
2021/07/17 12:00:20;;;;;;;8.07;5.80;;;24.00;74.20;;;;;;4928064;29;20027;-74
2021/07/17 12:02:57;;;;;;;10.63;6.00;;;24.00;74.60;;;;;;4947499;29;20023;-75
2021/07/17 12:05:23;;;;;;;10.43;5.70;;;24.00;74.00;;;;;;4937005;29;20392;-74
2021/07/17 12:07:49;;;;;;;11.40;5.63;;;23.90;74.50;;;;;;4947808;28;20048;-74
2021/07/17 12:10:23;;;;;;;10.30;5.82;;;23.90;74.70;;;;;;4917934;29;20038;-75
2021/07/17 12:12:51;;;;;;;11.02;6.05;;;24.00;74.50;;;;;;4917743;29;20377;-75
2021/07/17 12:15:19;;;;;;;9.95;6.03;;;24.10;74.10;;;;;;4918195;29;20421;-74
2021/07/17 12:17:47;;;;;;;9.00;6.10;;;24.20;74.90;;;;;;4922466;29;20082;-75
2021/07/17 12:20:24;;;;;;;11.10;6.15;;;24.20;74.40;;;;;;4936453;29;20069;-75
2021/07/17 12:23:14;;;;;;;9.75;5.57;;;24.20;74.30;;;;;;4939360;29;20091;-77
2021/07/17 12:25:46;;;;;;;10.30;5.68;;;24.40;73.70;;;;;;4925775;29;20048;-75
2021/07/17 12:28:15;;;;;;;8.43;5.90;;;24.70;74.10;;;;;;4944870;29;20024;-76
2021/07/17 12:30:44;;;;;;;9.13;5.32;;;24.80;73.10;;;;;;4934231;29;20032;-78
2021/07/17 12:33:13;;;;;;;7.68;5.50;;;25.00;72.60;;;;;;4936949;29;20031;-76
2021/07/17 12:35:39;;;;;;;9.63;5.22;;;25.10;72.30;;;;;;4925709;29;20063;-77